createdAt,value
2022-10-08T00:00:55.039Z,0.00
2022-10-08T00:01:55.104Z,0.00
2022-10-08T00:02:55.051Z,0.00
2022-10-08T00:03:55.075Z,0.00
2022-10-08T00:04:55.001Z,0.00
2022-10-08T00:05:55.004Z,0.00
2022-10-08T00:06:55.018Z,0.00
2022-10-08T00:07:54.987Z,0.00
2022-10-08T00:08:54.975Z,0.00
2022-10-08T00:09:54.947Z,0.00
2022-10-08T00:10:54.955Z,0.00
2022-10-08T00:11:54.944Z,0.00
2022-10-08T00:12:54.993Z,0.00
2022-10-08T00:13:54.907Z,0.00
2022-10-08T00:14:54.891Z,0.00
2022-10-08T00:15:54.937Z,0.00
2022-10-08T00:16:54.897Z,0.00
2022-10-08T00:17:54.909Z,0.00
2022-10-08T00:18:54.854Z,0.00
2022-10-08T00:19:54.864Z,0.00
2022-10-08T00:20:54.823Z,0.00
2022-10-08T00:21:54.810Z,0.00
2022-10-08T00:22:54.849Z,0.00
2022-10-08T00:23:54.800Z,0.00
2022-10-08T00:24:54.788Z,0.00
2022-10-08T00:25:54.778Z,0.00
2022-10-08T00:26:54.756Z,0.00
2022-10-08T00:27:54.748Z,0.00
2022-10-08T00:28:54.781Z,0.00
2022-10-08T00:29:54.730Z,0.00
2022-10-08T00:30:54.721Z,0.00
2022-10-08T00:31:55.538Z,0.00
2022-10-08T00:32:59.700Z,0.00
2022-10-08T00:33:54.737Z,0.00
2022-10-08T00:34:54.711Z,0.00
2022-10-08T00:35:54.656Z,0.00
2022-10-08T00:36:54.655Z,0.00
2022-10-08T00:37:54.653Z,0.00
2022-10-08T00:38:54.631Z,0.00
2022-10-08T00:39:54.631Z,0.00
2022-10-08T00:40:54.633Z,0.00
2022-10-08T00:41:54.623Z,0.00
2022-10-08T00:42:54.588Z,0.00
2022-10-08T00:43:54.577Z,0.00
2022-10-08T00:44:54.708Z,0.00
2022-10-08T00:45:54.587Z,0.00
2022-10-08T00:46:54.547Z,0.00
2022-10-08T00:47:54.542Z,0.00
2022-10-08T00:48:54.515Z,0.00
2022-10-08T00:49:54.529Z,0.00
2022-10-08T00:50:54.546Z,0.00
2022-10-08T00:51:54.484Z,0.00
2022-10-08T00:52:54.478Z,0.00
2022-10-08T00:53:54.468Z,0.00
2022-10-08T00:54:54.458Z,0.00
2022-10-08T00:55:54.480Z,0.00
2022-10-08T00:56:54.432Z,0.00
2022-10-08T00:57:54.425Z,0.00
2022-10-08T00:58:54.415Z,0.00
2022-10-08T00:59:54.397Z,0.00
2022-10-08T01:00:54.430Z,0.00
2022-10-08T01:01:54.428Z,0.00
2022-10-08T01:02:54.382Z,0.00
2022-10-08T01:03:54.356Z,0.00
2022-10-08T01:04:54.349Z,0.00
2022-10-08T01:05:54.350Z,0.00
2022-10-08T01:06:54.363Z,0.00
2022-10-08T01:07:54.310Z,0.00
2022-10-08T01:08:54.300Z,0.00
2022-10-08T01:09:54.295Z,0.00
2022-10-08T01:10:54.286Z,0.00
2022-10-08T01:11:54.302Z,0.00
2022-10-08T01:12:54.257Z,0.00
2022-10-08T01:13:54.249Z,0.00
2022-10-08T01:14:54.239Z,0.00
2022-10-08T01:15:54.307Z,0.00
2022-10-08T01:16:54.241Z,0.00
2022-10-08T01:17:54.230Z,0.00
2022-10-08T01:18:54.224Z,0.00
2022-10-08T01:19:54.182Z,0.00
2022-10-08T01:20:54.172Z,0.00
2022-10-08T01:21:54.162Z,0.00
2022-10-08T01:22:54.186Z,0.00
2022-10-08T01:23:54.142Z,0.00
2022-10-08T01:24:54.125Z,0.00
2022-10-08T01:25:54.121Z,0.00
2022-10-08T01:26:54.102Z,0.00
2022-10-08T01:27:54.103Z,0.00
2022-10-08T01:28:54.111Z,0.00
2022-10-08T01:29:54.067Z,0.00
2022-10-08T01:30:54.058Z,0.00
2022-10-08T01:31:54.144Z,0.00
2022-10-08T01:32:54.076Z,0.00
2022-10-08T01:33:54.053Z,0.00
2022-10-08T01:34:54.013Z,0.00
2022-10-08T01:35:54.065Z,0.00
2022-10-08T01:36:53.992Z,0.00
2022-10-08T01:37:53.985Z,0.00
2022-10-08T01:38:54.004Z,0.00
2022-10-08T01:39:53.969Z,0.00
2022-10-08T01:40:53.960Z,0.00
2022-10-08T01:41:53.947Z,0.00
2022-10-08T01:42:53.938Z,0.00
2022-10-08T01:43:53.955Z,0.00
2022-10-08T01:44:53.905Z,0.00
2022-10-08T01:45:53.978Z,0.00
2022-10-08T01:46:53.893Z,0.00
2022-10-08T01:47:53.881Z,0.00
2022-10-08T01:48:53.946Z,0.00
2022-10-08T01:49:53.851Z,0.00
2022-10-08T01:50:53.840Z,0.00
2022-10-08T01:51:53.829Z,0.00
2022-10-08T01:52:53.824Z,0.00
2022-10-08T01:53:53.806Z,0.00
2022-10-08T01:54:53.831Z,0.00
2022-10-08T01:55:53.796Z,0.00
2022-10-08T01:56:53.776Z,0.00
2022-10-08T01:57:53.771Z,0.00
2022-10-08T01:58:53.759Z,0.00
2022-10-08T01:59:53.744Z,0.00
2022-10-08T02:00:53.789Z,0.00
2022-10-08T02:01:53.791Z,0.00
2022-10-08T02:02:53.719Z,0.00
2022-10-08T02:03:53.701Z,0.00
2022-10-08T02:04:53.715Z,0.00
2022-10-08T02:05:53.684Z,0.00
2022-10-08T02:06:53.689Z,0.00
2022-10-08T02:07:53.657Z,0.00
2022-10-08T02:08:53.649Z,0.00
2022-10-08T02:09:53.643Z,0.00
2022-10-08T02:10:53.623Z,0.00
2022-10-08T02:11:53.635Z,0.00
2022-10-08T02:12:53.663Z,0.00
2022-10-08T02:13:53.590Z,0.00
2022-10-08T02:14:53.587Z,0.00
2022-10-08T02:15:53.577Z,0.00
2022-10-08T02:16:53.587Z,0.00
2022-10-08T02:17:53.553Z,0.00
2022-10-08T02:18:53.553Z,0.00
2022-10-08T02:19:53.524Z,0.00
2022-10-08T02:20:53.533Z,0.00
2022-10-08T02:21:53.514Z,0.00
2022-10-08T02:22:53.493Z,0.00
2022-10-08T02:23:53.498Z,0.00
2022-10-08T02:24:53.479Z,0.00
2022-10-08T02:25:53.464Z,0.00
2022-10-08T02:26:53.451Z,0.00
2022-10-08T02:27:53.437Z,0.00
2022-10-08T02:28:53.449Z,0.00
2022-10-08T02:29:53.424Z,0.00
2022-10-08T02:30:53.417Z,0.00
2022-10-08T02:31:53.555Z,0.00
2022-10-08T02:32:53.389Z,0.00
2022-10-08T02:33:53.373Z,0.00
2022-10-08T02:34:53.403Z,0.00
2022-10-08T02:35:53.362Z,0.00
2022-10-08T02:36:53.356Z,0.00
2022-10-08T02:37:53.341Z,0.00
2022-10-08T02:38:53.317Z,0.00
2022-10-08T02:39:53.306Z,0.00
2022-10-08T02:40:53.313Z,0.00
2022-10-08T02:41:53.312Z,0.00
2022-10-08T02:42:53.289Z,0.00
2022-10-08T02:43:53.273Z,0.00
2022-10-08T02:44:53.279Z,0.00
2022-10-08T02:45:53.323Z,0.00
2022-10-08T02:46:53.245Z,0.00
2022-10-08T02:47:53.219Z,0.00
2022-10-08T02:48:53.206Z,0.00
2022-10-08T02:49:53.213Z,0.00
2022-10-08T02:50:53.185Z,0.00
2022-10-08T02:51:53.184Z,0.00
2022-10-08T02:52:53.209Z,0.00
2022-10-08T02:53:53.195Z,0.00
2022-10-08T02:54:53.153Z,0.00
2022-10-08T02:55:53.142Z,0.00
2022-10-08T02:56:53.144Z,0.00
2022-10-08T02:57:53.179Z,0.00
2022-10-08T02:58:53.111Z,0.00
2022-10-08T02:59:53.122Z,0.00
2022-10-08T03:00:53.111Z,0.00
2022-10-08T03:01:53.195Z,0.00
2022-10-08T03:02:53.149Z,0.00
2022-10-08T03:03:53.058Z,0.00
2022-10-08T03:04:53.046Z,0.00
2022-10-08T03:05:53.050Z,0.00
2022-10-08T03:06:53.022Z,0.00
2022-10-08T03:07:53.014Z,0.00
2022-10-08T03:08:53.015Z,0.00
2022-10-08T03:09:52.990Z,0.00
2022-10-08T03:10:52.987Z,0.00
2022-10-08T03:11:52.958Z,0.00
2022-10-08T03:12:52.960Z,0.00
2022-10-08T03:13:52.941Z,0.00
2022-10-08T03:14:52.933Z,0.00
2022-10-08T03:15:52.940Z,0.00
2022-10-08T03:16:52.977Z,0.00
2022-10-08T03:17:52.901Z,0.00
2022-10-08T03:18:52.884Z,0.00
2022-10-08T03:19:52.879Z,0.00
2022-10-08T03:20:52.866Z,0.00
2022-10-08T03:21:52.859Z,0.00
2022-10-08T03:22:52.843Z,0.00
2022-10-08T03:23:52.837Z,0.00
2022-10-08T03:24:56.677Z,0.00
2022-10-08T03:25:52.812Z,0.00
2022-10-08T03:26:52.815Z,0.00
2022-10-08T03:27:52.791Z,0.00
2022-10-08T03:28:52.781Z,0.00
2022-10-08T03:29:52.770Z,0.00
2022-10-08T03:30:52.783Z,0.00
2022-10-08T03:31:52.770Z,0.00
2022-10-08T03:32:52.749Z,0.00
2022-10-08T03:33:52.721Z,0.00
2022-10-08T03:34:52.720Z,0.00
2022-10-08T03:35:52.710Z,0.00
2022-10-08T03:36:52.688Z,0.00
2022-10-08T03:37:52.693Z,0.00
2022-10-08T03:38:52.667Z,0.00
2022-10-08T03:39:52.679Z,0.00
2022-10-08T03:40:52.776Z,0.00
2022-10-08T03:41:52.633Z,0.00
2022-10-08T03:42:52.639Z,0.00
2022-10-08T03:43:52.635Z,0.00
2022-10-08T03:44:52.606Z,0.00
2022-10-08T03:45:52.625Z,0.00
2022-10-08T03:46:52.591Z,0.00
2022-10-08T03:47:52.596Z,0.00
2022-10-08T03:48:52.562Z,0.00
2022-10-08T03:49:52.575Z,0.00
2022-10-08T03:50:52.541Z,0.00
2022-10-08T03:51:52.526Z,0.00
2022-10-08T03:52:52.520Z,0.00
2022-10-08T03:53:52.507Z,0.00
2022-10-08T03:54:52.502Z,0.00
2022-10-08T03:55:52.497Z,0.00
2022-10-08T03:56:52.499Z,0.00
2022-10-08T03:57:52.494Z,0.00
2022-10-08T03:58:52.450Z,0.00
2022-10-08T03:59:52.438Z,0.00
2022-10-08T04:00:52.425Z,0.00
2022-10-08T04:01:52.482Z,0.00
2022-10-08T04:02:52.504Z,0.00
2022-10-08T04:03:52.408Z,0.00
2022-10-08T04:04:52.387Z,0.00
2022-10-08T04:05:52.380Z,0.00
2022-10-08T04:06:52.376Z,0.00
2022-10-08T04:07:52.361Z,0.00
2022-10-08T04:08:52.352Z,0.00
2022-10-08T04:09:52.327Z,0.00
2022-10-08T04:10:52.338Z,0.00
2022-10-08T04:11:52.316Z,0.00
2022-10-08T04:12:52.321Z,0.00
2022-10-08T04:13:52.286Z,0.00
2022-10-08T04:14:52.274Z,0.00
2022-10-08T04:15:52.308Z,0.00
2022-10-08T04:16:52.274Z,0.00
2022-10-08T04:17:52.247Z,0.00
2022-10-08T04:18:52.262Z,0.00
2022-10-08T04:19:52.229Z,0.00
2022-10-08T04:20:52.237Z,0.00
2022-10-08T04:21:52.220Z,0.00
2022-10-08T04:22:52.188Z,0.00
2022-10-08T04:23:52.191Z,0.00
2022-10-08T04:24:52.166Z,0.00
2022-10-08T04:25:52.153Z,0.00
2022-10-08T04:26:59.250Z,0.00
2022-10-08T04:27:52.138Z,0.00
2022-10-08T04:28:52.246Z,0.00
2022-10-08T04:29:52.127Z,0.00
2022-10-08T04:30:52.145Z,0.00
2022-10-08T04:31:52.099Z,0.00
2022-10-08T04:32:52.108Z,0.00
2022-10-08T04:33:52.097Z,0.00
2022-10-08T04:34:52.071Z,0.00
2022-10-08T04:35:55.096Z,0.00
2022-10-08T04:36:53.037Z,0.00
2022-10-08T04:37:52.025Z,0.00
2022-10-08T04:38:52.029Z,0.00
2022-10-08T04:39:52.033Z,0.00
2022-10-08T04:40:52.001Z,0.00
2022-10-08T04:41:51.978Z,0.00
2022-10-08T04:42:51.985Z,0.00
2022-10-08T04:43:51.968Z,0.00
2022-10-08T04:44:51.979Z,0.00
2022-10-08T04:45:51.968Z,0.00
2022-10-08T04:46:51.938Z,0.00
2022-10-08T04:47:51.923Z,0.00
2022-10-08T04:48:51.911Z,0.00
2022-10-08T04:49:51.911Z,0.00
2022-10-08T04:50:51.885Z,0.00
2022-10-08T04:51:51.895Z,0.00
2022-10-08T04:52:51.873Z,4.00
2022-10-08T04:53:51.851Z,4.00
2022-10-08T04:54:51.854Z,4.00
2022-10-08T04:55:51.842Z,0.00
2022-10-08T04:56:51.863Z,4.00
2022-10-08T04:57:51.814Z,4.00
2022-10-08T04:58:51.797Z,4.00
2022-10-08T05:00:16.630Z,8.00
2022-10-08T05:00:52.794Z,8.00
2022-10-08T05:01:51.858Z,8.00
2022-10-08T05:02:52.020Z,8.00
2022-10-08T05:03:51.749Z,12.00
2022-10-08T05:04:51.738Z,16.00
2022-10-08T05:05:51.737Z,16.00
2022-10-08T05:06:51.720Z,20.00
2022-10-08T05:07:51.730Z,20.00
2022-10-08T05:08:51.728Z,24.00
2022-10-08T05:09:51.684Z,28.00
2022-10-08T05:10:51.683Z,32.00
2022-10-08T05:11:51.662Z,36.00
2022-10-08T05:12:51.651Z,36.00
2022-10-08T05:13:51.673Z,40.00
2022-10-08T05:14:51.638Z,48.00
2022-10-08T05:15:51.666Z,52.00
2022-10-08T05:16:51.720Z,56.00
2022-10-08T05:17:51.597Z,64.00
2022-10-08T05:18:51.581Z,68.00
2022-10-08T05:19:51.575Z,76.00
2022-10-08T05:20:51.555Z,80.00
2022-10-08T05:21:51.565Z,84.00
2022-10-08T05:22:51.546Z,92.00
2022-10-08T05:23:51.534Z,100.00
2022-10-08T05:24:51.515Z,108.00
2022-10-08T05:25:51.521Z,120.00
2022-10-08T05:26:58.523Z,128.00
2022-10-08T05:27:52.489Z,132.00
2022-10-08T05:28:51.493Z,140.00
2022-10-08T05:29:51.476Z,140.00
2022-10-08T05:30:51.483Z,140.00
2022-10-08T05:31:51.444Z,140.00
2022-10-08T05:32:51.501Z,148.00
2022-10-08T05:33:51.423Z,152.00
2022-10-08T05:34:51.430Z,160.00
2022-10-08T05:35:51.396Z,168.00
2022-10-08T05:36:51.395Z,180.00
2022-10-08T05:37:51.386Z,192.00
2022-10-08T05:38:51.372Z,196.00
2022-10-08T05:39:51.363Z,200.00
2022-10-08T05:40:51.374Z,208.00
2022-10-08T05:41:51.412Z,224.00
2022-10-08T05:42:51.333Z,224.00
2022-10-08T05:43:51.321Z,228.00
2022-10-08T05:44:51.295Z,232.00
2022-10-08T05:45:51.283Z,244.00
2022-10-08T05:46:51.396Z,252.00
2022-10-08T05:47:51.287Z,256.00
2022-10-08T05:48:51.274Z,264.00
2022-10-08T05:49:51.251Z,276.00
2022-10-08T05:50:51.249Z,280.00
2022-10-08T05:51:51.242Z,292.00
2022-10-08T05:52:51.219Z,300.00
2022-10-08T05:53:51.202Z,296.00
2022-10-08T05:54:51.198Z,312.00
2022-10-08T05:55:51.193Z,324.00
2022-10-08T05:56:51.190Z,324.00
2022-10-08T05:57:51.173Z,324.00
2022-10-08T05:58:51.188Z,336.00
2022-10-08T05:59:51.136Z,340.00
2022-10-08T06:00:51.124Z,348.00
2022-10-08T06:01:51.119Z,360.00
2022-10-08T06:02:51.484Z,364.00
2022-10-08T06:03:51.100Z,376.00
2022-10-08T06:04:51.192Z,388.00
2022-10-08T06:05:51.071Z,396.00
2022-10-08T06:06:51.077Z,416.00
2022-10-08T06:07:51.051Z,432.00
2022-10-08T06:08:51.071Z,448.00
2022-10-08T06:09:51.038Z,468.00
2022-10-08T06:10:51.026Z,528.00
2022-10-08T06:11:51.023Z,616.00
2022-10-08T06:12:50.995Z,600.00
2022-10-08T06:13:50.985Z,600.00
2022-10-08T06:14:51.009Z,576.00
2022-10-08T06:15:51.014Z,536.00
2022-10-08T06:16:50.957Z,552.00
2022-10-08T06:17:50.941Z,616.00
2022-10-08T06:18:50.939Z,684.00
2022-10-08T06:19:50.932Z,696.00
2022-10-08T06:20:51.157Z,660.00
2022-10-08T06:21:50.916Z,692.00
2022-10-08T06:22:50.995Z,764.00
2022-10-08T06:23:50.900Z,860.00
2022-10-08T06:24:51.616Z,896.00
2022-10-08T06:25:50.870Z,916.00
2022-10-08T06:26:50.850Z,1000.00
2022-10-08T06:27:50.830Z,1128.00
2022-10-08T06:28:50.870Z,1208.00
2022-10-08T06:29:50.834Z,1272.00
2022-10-08T06:30:50.799Z,1284.00
2022-10-08T06:31:50.867Z,1168.00
2022-10-08T06:32:50.781Z,1008.00
2022-10-08T06:33:50.774Z,872.00
2022-10-08T06:34:50.775Z,824.00
2022-10-08T06:35:50.750Z,792.00
2022-10-08T06:36:50.757Z,780.00
2022-10-08T06:37:50.725Z,800.00
2022-10-08T06:38:50.728Z,848.00
2022-10-08T06:39:50.722Z,904.00
2022-10-08T06:40:50.710Z,916.00
2022-10-08T06:41:50.711Z,876.00
2022-10-08T06:42:50.676Z,836.00
2022-10-08T06:43:50.671Z,848.00
2022-10-08T06:44:50.652Z,908.00
2022-10-08T06:45:50.638Z,1016.00
2022-10-08T06:46:50.719Z,1008.00
2022-10-08T06:47:50.629Z,1036.00
2022-10-08T06:48:50.601Z,1076.00
2022-10-08T06:49:50.603Z,1120.00
2022-10-08T06:50:50.612Z,1088.00
2022-10-08T06:51:50.578Z,1040.00
2022-10-08T06:52:50.596Z,1056.00
2022-10-08T06:53:50.550Z,1164.00
2022-10-08T06:54:50.543Z,1264.00
2022-10-08T06:55:50.534Z,1328.00
2022-10-08T06:56:50.532Z,1464.00
2022-10-08T06:57:50.509Z,1680.00
2022-10-08T06:58:50.507Z,1828.00
2022-10-08T06:59:50.482Z,1988.00
2022-10-08T07:00:50.518Z,2028.00
2022-10-08T07:01:50.510Z,2176.00
2022-10-08T07:02:50.602Z,2240.00
2022-10-08T07:03:50.447Z,2060.00
2022-10-08T07:04:50.439Z,1640.00
2022-10-08T07:05:50.420Z,1280.00
2022-10-08T07:06:50.450Z,1340.00
2022-10-08T07:07:50.403Z,1344.00
2022-10-08T07:08:50.410Z,1532.00
2022-10-08T07:09:50.373Z,2076.00
2022-10-08T07:10:50.375Z,2208.00
2022-10-08T07:11:50.389Z,1676.00
2022-10-08T07:12:51.032Z,2228.00
2022-10-08T07:13:50.329Z,2024.00
2022-10-08T07:14:50.347Z,1300.00
2022-10-08T07:15:50.454Z,1100.00
2022-10-08T07:16:50.369Z,1180.00
2022-10-08T07:17:50.294Z,1304.00
2022-10-08T07:18:50.308Z,1412.00
2022-10-08T07:19:50.268Z,1380.00
2022-10-08T07:20:50.280Z,1496.00
2022-10-08T07:21:50.248Z,1916.00
2022-10-08T07:22:50.576Z,1508.00
2022-10-08T07:23:50.229Z,1792.00
2022-10-08T07:24:50.242Z,2700.00
2022-10-08T07:25:50.203Z,2732.00
2022-10-08T07:26:50.193Z,2752.00
2022-10-08T07:27:50.181Z,2788.00
2022-10-08T07:28:50.159Z,2800.00
2022-10-08T07:29:50.171Z,2540.00
2022-10-08T07:30:50.148Z,2708.00
2022-10-08T07:31:50.222Z,2656.00
2022-10-08T07:32:50.310Z,2936.00
2022-10-08T07:33:50.116Z,2984.00
2022-10-08T07:34:50.097Z,3048.00
2022-10-08T07:35:50.097Z,3060.00
2022-10-08T07:36:50.094Z,3048.00
2022-10-08T07:37:50.078Z,2908.00
2022-10-08T07:38:50.063Z,3136.00
2022-10-08T07:39:50.039Z,3168.00
2022-10-08T07:40:50.117Z,2940.00
2022-10-08T07:41:50.027Z,2464.00
2022-10-08T07:42:50.246Z,2108.00
2022-10-08T07:43:49.997Z,2408.00
2022-10-08T07:44:49.984Z,2932.00
2022-10-08T07:45:49.989Z,3252.00
2022-10-08T07:46:49.975Z,3424.00
2022-10-08T07:47:49.963Z,3228.00
2022-10-08T07:48:49.957Z,2288.00
2022-10-08T07:49:49.971Z,2400.00
2022-10-08T07:50:49.928Z,1788.00
2022-10-08T07:51:49.907Z,1812.00
2022-10-08T07:52:50.288Z,2452.00
2022-10-08T07:53:49.890Z,3208.00
2022-10-08T07:54:49.877Z,3552.00
2022-10-08T07:55:49.871Z,3592.00
2022-10-08T07:56:49.869Z,3652.00
2022-10-08T07:57:49.864Z,3704.00
2022-10-08T07:58:49.855Z,3764.00
2022-10-08T07:59:49.826Z,3800.00
2022-10-08T08:00:49.844Z,3864.00
2022-10-08T08:01:49.862Z,3896.00
2022-10-08T08:02:50.129Z,3920.00
2022-10-08T08:03:49.781Z,3944.00
2022-10-08T08:04:49.766Z,3976.00
2022-10-08T08:05:49.764Z,3984.00
2022-10-08T08:06:49.749Z,4004.00
2022-10-08T08:07:53.116Z,4048.00
2022-10-08T08:08:49.731Z,4080.00
2022-10-08T08:09:49.719Z,4112.00
2022-10-08T08:10:49.699Z,4108.00
2022-10-08T08:11:49.690Z,4208.00
2022-10-08T08:12:50.081Z,4304.00
2022-10-08T08:13:49.699Z,4444.00
2022-10-08T08:14:49.671Z,4548.00
2022-10-08T08:15:49.653Z,4672.00
2022-10-08T08:16:49.737Z,4776.00
2022-10-08T08:17:49.628Z,4912.00
2022-10-08T08:18:49.625Z,5024.00
2022-10-08T08:19:49.635Z,5276.00
2022-10-08T08:20:49.591Z,5520.00
2022-10-08T08:21:49.580Z,5688.00
2022-10-08T08:22:49.962Z,5780.00
2022-10-08T08:23:49.559Z,5876.00
2022-10-08T08:24:49.579Z,5960.00
2022-10-08T08:25:49.531Z,6028.00
2022-10-08T08:26:50.804Z,6128.00
2022-10-08T08:27:49.523Z,6228.00
2022-10-08T08:28:49.564Z,6300.00
2022-10-08T08:29:49.497Z,6408.00
2022-10-08T08:30:49.504Z,6588.00
2022-10-08T08:31:49.622Z,6792.00
2022-10-08T08:32:49.804Z,7172.00
2022-10-08T08:33:49.455Z,8008.00
2022-10-08T08:35:04.870Z,10216.00
2022-10-08T08:36:04.672Z,20512.00
2022-10-08T08:36:49.422Z,31872.00
2022-10-08T08:37:49.412Z,35104.00
2022-10-08T08:38:49.403Z,37824.00
2022-10-08T08:39:49.383Z,39712.00
2022-10-08T08:40:49.381Z,39424.00
2022-10-08T08:41:49.370Z,40640.00
2022-10-08T08:42:49.701Z,40576.00
2022-10-08T08:43:49.342Z,42528.00
2022-10-08T08:44:49.350Z,42688.00
2022-10-08T08:45:49.360Z,43872.00
2022-10-08T08:46:49.330Z,44192.00
2022-10-08T08:47:49.301Z,46336.00
2022-10-08T08:48:49.291Z,48896.00
2022-10-08T08:49:49.269Z,49632.00
2022-10-08T08:50:49.275Z,45120.00
2022-10-08T08:51:49.343Z,42688.00
2022-10-08T08:52:49.820Z,41536.00
2022-10-08T08:53:49.229Z,37184.00
2022-10-08T08:54:49.243Z,31808.00
2022-10-08T08:55:49.238Z,41792.00
2022-10-08T08:56:49.212Z,42144.00
2022-10-08T08:57:49.197Z,8756.00
2022-10-08T08:58:49.187Z,16928.00
2022-10-08T08:59:49.170Z,46432.00
2022-10-08T09:00:49.193Z,47520.00
2022-10-08T09:01:49.154Z,48544.00
2022-10-08T09:02:49.554Z,47104.00
2022-10-08T09:03:49.170Z,44608.00
2022-10-08T09:04:49.122Z,30080.00
2022-10-08T09:05:49.164Z,14780.00
2022-10-08T09:06:49.092Z,7136.00
2022-10-08T09:07:49.111Z,11500.00
2022-10-08T09:08:49.103Z,10368.00
2022-10-08T09:09:49.070Z,7108.00
2022-10-08T09:10:49.060Z,4232.00
2022-10-08T09:11:49.051Z,8704.00
2022-10-08T09:12:49.644Z,11704.00
2022-10-08T09:13:49.025Z,13808.00
2022-10-08T09:14:49.038Z,12688.00
2022-10-08T09:15:49.017Z,10148.00
2022-10-08T09:16:49.127Z,9676.00
2022-10-08T09:17:48.975Z,6544.00
2022-10-08T09:18:48.966Z,11740.00
2022-10-08T09:19:48.957Z,9472.00
2022-10-08T09:20:48.979Z,9740.00
2022-10-08T09:21:48.939Z,5388.00
2022-10-08T09:22:49.413Z,11900.00
2022-10-08T09:23:48.915Z,10436.00
2022-10-08T09:24:48.908Z,11436.00
2022-10-08T09:25:48.898Z,8512.00
2022-10-08T09:26:48.887Z,12072.00
2022-10-08T09:27:48.874Z,9716.00
2022-10-08T09:28:48.903Z,9892.00
2022-10-08T09:29:48.853Z,12940.00
2022-10-08T09:30:48.883Z,9840.00
2022-10-08T09:31:48.839Z,12580.00
2022-10-08T09:32:49.168Z,10400.00
2022-10-08T09:33:48.813Z,9096.00
2022-10-08T09:34:48.797Z,11264.00
2022-10-08T09:35:48.787Z,10864.00
2022-10-08T09:36:48.764Z,6836.00
2022-10-08T09:37:48.779Z,6136.00
2022-10-08T09:38:48.753Z,5844.00
2022-10-08T09:39:48.741Z,5816.00
2022-10-08T09:40:48.732Z,6108.00
2022-10-08T09:41:48.731Z,6892.00
2022-10-08T09:42:49.016Z,6228.00
2022-10-08T09:43:48.698Z,7144.00
2022-10-08T09:44:48.684Z,4460.00
2022-10-08T09:45:48.719Z,4760.00
2022-10-08T09:46:48.678Z,5956.00
2022-10-08T09:47:48.692Z,5796.00
2022-10-08T09:48:48.653Z,4892.00
2022-10-08T09:49:48.681Z,4644.00
2022-10-08T09:50:48.623Z,4256.00
2022-10-08T09:51:48.612Z,3960.00
2022-10-08T09:52:49.228Z,3060.00
2022-10-08T09:53:48.591Z,2336.00
2022-10-08T09:54:48.571Z,2852.00
2022-10-08T09:55:48.570Z,2928.00
2022-10-08T09:56:48.556Z,3348.00
2022-10-08T09:57:48.545Z,3568.00
2022-10-08T09:58:48.542Z,3576.00
2022-10-08T09:59:48.536Z,3456.00
2022-10-08T10:00:48.509Z,3264.00
2022-10-08T10:01:48.526Z,3576.00
2022-10-08T10:02:48.961Z,4796.00
2022-10-08T10:03:48.520Z,5732.00
2022-10-08T10:04:48.490Z,5732.00
2022-10-08T10:05:48.464Z,5792.00
2022-10-08T10:06:48.449Z,7232.00
2022-10-08T10:07:48.436Z,8836.00
2022-10-08T10:08:48.445Z,8196.00
2022-10-08T10:09:48.411Z,6144.00
2022-10-08T10:10:48.405Z,4132.00
2022-10-08T10:11:48.396Z,6060.00
2022-10-08T10:12:48.832Z,3840.00
2022-10-08T10:13:48.724Z,4072.00
2022-10-08T10:14:48.363Z,4008.00
2022-10-08T10:15:48.378Z,4200.00
2022-10-08T10:16:48.391Z,3796.00
2022-10-08T10:17:48.325Z,3168.00
2022-10-08T10:18:48.316Z,3264.00
2022-10-08T10:19:48.306Z,2880.00
2022-10-08T10:20:48.320Z,3636.00
2022-10-08T10:21:48.299Z,2948.00
2022-10-08T10:22:48.592Z,2084.00
2022-10-08T10:23:48.276Z,2124.00
2022-10-08T10:24:48.270Z,2236.00
2022-10-08T10:25:48.236Z,3204.00
2022-10-08T10:26:48.232Z,4064.00
2022-10-08T10:27:55.299Z,4892.00
2022-10-08T10:28:48.278Z,3940.00
2022-10-08T10:29:48.190Z,3580.00
2022-10-08T10:30:48.213Z,2864.00
2022-10-08T10:31:48.166Z,3148.00
2022-10-08T10:32:48.534Z,3548.00
2022-10-08T10:33:48.149Z,2460.00
2022-10-08T10:34:48.135Z,2808.00
2022-10-08T10:35:48.126Z,3368.00
2022-10-08T10:36:48.147Z,3592.00
2022-10-08T10:37:48.134Z,3072.00
2022-10-08T10:38:48.094Z,3992.00
2022-10-08T10:39:48.097Z,4228.00
2022-10-08T10:40:48.072Z,3132.00
2022-10-08T10:41:48.055Z,2868.00
2022-10-08T10:42:48.444Z,2596.00
2022-10-08T10:43:48.053Z,2456.00
2022-10-08T10:44:48.022Z,2480.00
2022-10-08T10:45:48.069Z,2700.00
2022-10-08T10:46:47.998Z,3092.00
2022-10-08T10:47:47.985Z,3936.00
2022-10-08T10:48:47.979Z,4072.00
2022-10-08T10:49:47.995Z,4204.00
2022-10-08T10:50:47.955Z,4084.00
2022-10-08T10:51:47.944Z,3628.00
2022-10-08T10:52:48.284Z,3284.00
2022-10-08T10:53:47.929Z,3000.00
2022-10-08T10:54:47.935Z,2256.00
2022-10-08T10:55:52.542Z,1700.00
2022-10-08T10:56:48.896Z,1472.00
2022-10-08T10:57:47.895Z,1384.00
2022-10-08T10:58:47.868Z,1440.00
2022-10-08T10:59:47.877Z,1660.00
2022-10-08T11:00:47.858Z,1936.00
2022-10-08T11:01:47.936Z,1880.00
2022-10-08T11:02:48.272Z,2416.00
2022-10-08T11:03:47.814Z,2420.00
2022-10-08T11:04:47.809Z,2032.00
2022-10-08T11:05:47.803Z,1968.00
2022-10-08T11:06:47.779Z,1676.00
2022-10-08T11:07:47.771Z,1580.00
2022-10-08T11:08:47.838Z,1688.00
2022-10-08T11:09:47.778Z,1472.00
2022-10-08T11:10:47.735Z,1828.00
2022-10-08T11:11:47.733Z,2308.00
2022-10-08T11:12:48.044Z,1828.00
2022-10-08T11:13:47.708Z,1616.00
2022-10-08T11:14:47.700Z,2360.00
2022-10-08T11:15:47.746Z,2676.00
2022-10-08T11:16:47.670Z,2116.00
2022-10-08T11:17:47.673Z,1784.00
2022-10-08T11:18:47.641Z,1908.00
2022-10-08T11:19:47.643Z,1548.00
2022-10-08T11:20:47.643Z,1164.00
2022-10-08T11:21:47.618Z,1004.00
2022-10-08T11:22:47.833Z,944.00
2022-10-08T11:23:47.601Z,952.00
2022-10-08T11:24:47.602Z,1016.00
2022-10-08T11:26:14.026Z,1044.00
2022-10-08T11:26:48.556Z,1088.00
2022-10-08T11:27:47.556Z,1224.00
2022-10-08T11:28:47.607Z,1044.00
2022-10-08T11:29:47.522Z,748.00
2022-10-08T11:30:47.545Z,644.00
2022-10-08T11:31:47.526Z,956.00
2022-10-08T11:32:47.695Z,1120.00
2022-10-08T11:33:47.488Z,780.00
2022-10-08T11:34:47.472Z,732.00
2022-10-08T11:35:47.459Z,824.00
2022-10-08T11:36:47.443Z,808.00
2022-10-08T11:37:47.459Z,776.00
2022-10-08T11:38:47.435Z,732.00
2022-10-08T11:39:47.423Z,728.00
2022-10-08T11:40:47.495Z,584.00
2022-10-08T11:41:47.395Z,680.00
2022-10-08T11:42:48.639Z,1024.00
2022-10-08T11:43:47.411Z,1532.00
2022-10-08T11:44:47.372Z,1592.00
2022-10-08T11:45:47.348Z,1668.00
2022-10-08T11:46:47.350Z,1164.00
2022-10-08T11:47:47.348Z,1316.00
2022-10-08T11:48:47.350Z,2572.00
2022-10-08T11:49:47.308Z,2948.00
2022-10-08T11:50:47.291Z,2876.00
2022-10-08T11:51:47.287Z,2836.00
2022-10-08T11:52:47.502Z,2752.00
2022-10-08T11:53:47.285Z,2608.00
2022-10-08T11:54:50.505Z,2644.00
2022-10-08T11:55:48.239Z,2996.00
2022-10-08T11:56:47.257Z,3384.00
2022-10-08T11:58:07.284Z,3676.00
2022-10-08T11:58:48.264Z,3712.00
2022-10-08T11:59:47.215Z,3596.00
2022-10-08T12:00:47.194Z,3288.00
2022-10-08T12:01:47.182Z,3356.00
2022-10-08T12:02:47.691Z,3656.00
2022-10-08T12:03:47.214Z,3724.00
2022-10-08T12:04:47.178Z,3428.00
2022-10-08T12:05:50.331Z,3344.00
2022-10-08T12:06:47.145Z,4172.00
2022-10-08T12:07:47.122Z,4912.00
2022-10-08T12:08:47.101Z,5412.00
2022-10-08T12:09:47.121Z,6264.00
2022-10-08T12:10:47.086Z,7512.00
2022-10-08T12:11:47.064Z,6240.00
2022-10-08T12:12:47.521Z,5856.00
2022-10-08T12:13:47.061Z,5660.00
2022-10-08T12:14:47.039Z,5512.00
2022-10-08T12:15:47.106Z,5316.00
2022-10-08T12:16:47.016Z,4996.00
2022-10-08T12:17:47.001Z,4796.00
2022-10-08T12:18:46.993Z,4184.00
2022-10-08T12:19:46.987Z,3984.00
2022-10-08T12:20:46.981Z,4196.00
2022-10-08T12:21:46.969Z,4724.00
2022-10-08T12:22:47.311Z,5128.00
2022-10-08T12:23:46.956Z,5584.00
2022-10-08T12:24:50.354Z,6308.00
2022-10-08T12:25:46.920Z,6908.00
2022-10-08T12:26:46.912Z,7040.00
2022-10-08T12:27:46.902Z,6012.00
2022-10-08T12:28:47.042Z,6428.00
2022-10-08T12:29:46.888Z,6084.00
2022-10-08T12:30:46.910Z,5552.00
2022-10-08T12:31:49.703Z,4244.00
2022-10-08T12:32:47.232Z,4316.00
2022-10-08T12:33:46.872Z,5268.00
2022-10-08T12:34:46.844Z,4304.00
2022-10-08T12:35:46.843Z,4064.00